MSC Mara — V7NF9 — position and weather

sailwx.info

Track history (hours):
 
Tides and Currents Weather Stations Pressure Air Temp Water Temp Dewpoint Dewpoint Depression Visibility Wind Speed Wind Dir Waves Ship Positions

MSC Mara

Last reported at 2014-Sep-17 22:33 UTC. Time now 2014-Sep-20 12:04 UTC.
Position N 40°26' E 014°08'.

Length 294 m; draft 10.6 m.

Type: Ship (hazmat cat C). MMSI: 538002955.

Date/timePositionNaut miles runAvg speedWind from/ knotsBaromVisibWave heightAir tempDewpointWater temp
2014-Sep-17 22:33N 40°26' E 014°08'2320.2
2014-Sep-17 21:25N 40°48' E 014°17'2 0.7
2014-Sep-17 18:25N 40°50' E 014°17'0 0.0
2014-Sep-17 16:19N 40°50' E 014°17'0 0.0
2014-Sep-17 14:28N 40°50' E 014°17'0 0.0
2014-Sep-17 13:28N 40°50' E 014°17'22710.3
2014-Sep-16 15:25N 42°38' E 009°49'1820.9
2014-Sep-16 14:33N 42°55' E 009°41'2020.2
2014-Sep-16 13:33N 43°15' E 009°39'2120.9
2014-Sep-16 12:33N 43°36' E 009°44'2121.1
2014-Sep-16 11:33N 43°56' E 009°52'10 9.8
2014-Sep-16 10:31N 44°06' E 009°51'0 0.0
2014-Sep-16 09:31N 44°06' E 009°51'0 0.0
2014-Sep-16 08:31N 44°06' E 009°51'0 0.0
2014-Sep-16 07:31N 44°06' E 009°51'0 0.0
2014-Sep-16 06:31N 44°06' E 009°51'0 0.0
2014-Sep-16 05:31N 44°06' E 009°51'0 0.0
2014-Sep-16 04:31N 44°06' E 009°51'0 0.0
2014-Sep-16 03:31N 44°06' E 009°51'0 0.0
2014-Sep-16 02:31N 44°06' E 009°51'0 0.0
2014-Sep-16 01:31N 44°06' E 009°51'0 0.0
2014-Sep-16 00:31N 44°06' E 009°51'0 0.0
2014-Sep-15 23:31N 44°06' E 009°51'0 0.0
2014-Sep-15 22:31N 44°06' E 009°51'0 0.0
2014-Sep-15 21:31N 44°06' E 009°51'0 0.0
2014-Sep-15 20:31N 44°06' E 009°51'0 0.0
2014-Sep-15 19:31N 44°06' E 009°51'0 0.0
2014-Sep-15 18:31N 44°06' E 009°51'1 0.7
2014-Sep-15 17:33N 44°06' E 009°51'10 9.7
2014-Sep-15 16:33N 43°56' E 009°48'5 5.4
2014-Sep-15 15:33N 43°54' E 009°41'4 3.5
2014-Sep-15 14:33N 43°52' E 009°37'1313.1
2014-Sep-15 13:33N 43°46' E 009°21'1414.4
2014-Sep-15 12:34N 43°40' E 009°03'1414.4
2014-Sep-15 11:33N 43°34' E 008°45'6716.6
2014-Sep-15 07:30N 43°06' E 007°21'1414.9
2014-Sep-15 06:34N 43°02' E 007°03'1414.4
2014-Sep-15 05:33N 42°57' E 006°44'1414.0
2014-Sep-15 04:33N 42°53' E 006°26'1413.6
2014-Sep-15 03:33N 42°49' E 006°08'1414.0
2014-Sep-15 02:34N 42°49' E 005°49'1413.5
2014-Sep-15 01:33N 42°54' E 005°32'1514.1
2014-Sep-15 00:30N 43°03' E 005°16'1414.2
2014-Sep-14 23:33N 43°12' E 005°01'1212.3
2014-Sep-14 22:34N 43°23' E 004°56'4 4.4
2014-Sep-14 21:33N 43°25' E 004°50'0 0.0
2014-Sep-14 20:33N 43°25' E 004°50'0 0.0
2014-Sep-14 19:33N 43°25' E 004°50'0 0.0
2014-Sep-14 18:33N 43°25' E 004°50'0 0.0
2014-Sep-14 17:33N 43°25' E 004°50'0 0.0
2014-Sep-14 16:33N 43°25' E 004°50'0 0.0
2014-Sep-14 15:33N 43°25' E 004°50'0 0.0
2014-Sep-14 14:33N 43°25' E 004°50'0 0.0
2014-Sep-14 13:33N 43°25' E 004°50'0 0.0
2014-Sep-14 12:27N 43°25' E 004°50'0 0.0
2014-Sep-14 11:33N 43°25' E 004°50'0 0.0
2014-Sep-14 10:33N 43°25' E 004°50'0 0.0
2014-Sep-14 09:33N 43°25' E 004°50'0 0.0
2014-Sep-14 08:33N 43°25' E 004°50'0 0.0
2014-Sep-14 07:33N 43°25' E 004°50'0 0.0
2014-Sep-14 06:32N 43°25' E 004°50'0 0.0
2014-Sep-14 05:32N 43°25' E 004°50'0 0.0
2014-Sep-14 04:32N 43°25' E 004°50'0 0.0
2014-Sep-14 03:32N 43°25' E 004°50'0 0.0
2014-Sep-14 02:32N 43°25' E 004°50'1 1.3
2014-Sep-14 01:34N 43°24' E 004°52'4210.5
2014-Sep-13 21:33N 42°44' E 004°36'1413.6
2014-Sep-13 20:33N 42°32' E 004°26'1313.0
2014-Sep-13 19:33N 42°22' E 004°15'1413.9
2014-Sep-13 18:32N 42°10' E 004°04'1313.0
2014-Sep-13 17:33N 41°60' E 003°55'1313.4
2014-Sep-13 16:33N 41°50' E 003°43'1512.9
2014-Sep-13 15:25N 41°39' E 003°29'1213.7
2014-Sep-13 14:33N 41°31' E 003°17'1413.4
2014-Sep-13 13:32N 41°22' E 003°04'1817.4
2014-Sep-13 12:29N 41°09' E 002°46'2021.3
2014-Sep-13 11:33N 40°56' E 002°27'1717.4
2014-Sep-13 10:33N 40°44' E 002°11'1514.5
2014-Sep-13 09:33N 40°34' E 001°56'1515.1
2014-Sep-13 08:33N 40°24' E 001°42'1515.2
2014-Sep-13 07:33N 40°13' E 001°28'1515.0
2014-Sep-13 06:33N 40°03' E 001°13'1514.7
2014-Sep-13 05:33N 39°53' E 000°59'1414.4
2014-Sep-13 04:33N 39°45' E 000°43'1414.5
2014-Sep-13 03:34N 39°39' E 000°26'3414.8
2014-Sep-13 01:15N 39°25' W 000°14'4 6.2
2014-Sep-13 00:33N 39°26' W 000°20'0 0.0
2014-Sep-12 23:30N 39°26' W 000°20'0 0.0
2014-Sep-12 22:33N 39°26' W 000°20'0 0.0
2014-Sep-12 21:18N 39°26' W 000°20'0 0.0
2014-Sep-12 20:33N 39°26' W 000°20'0 0.0
2014-Sep-12 19:30N 39°26' W 000°20'0 0.0
2014-Sep-12 18:30N 39°26' W 000°20'0 0.0
2014-Sep-12 17:30N 39°26' W 000°20'0 0.0
2014-Sep-12 16:33N 39°26' W 000°20'0 0.0
2014-Sep-12 15:33N 39°26' W 000°20'0 0.0
2014-Sep-12 14:33N 39°26' W 000°20'0 0.0
2014-Sep-12 13:33N 39°26' W 000°20'0 0.0
2014-Sep-12 12:33N 39°26' W 000°20'0 0.0
2014-Sep-12 11:33N 39°26' W 000°20'0 0.0
2014-Sep-12 10:30N 39°26' W 000°20'0 0.0
2014-Sep-12 09:33N 39°26' W 000°20'0 0.0
2014-Sep-12 08:33N 39°26' W 000°20'0 0.0
2014-Sep-12 07:30N 39°26' W 000°20'0 0.0
2014-Sep-12 06:33N 39°26' W 000°20'0 0.1
2014-Sep-12 05:33N 39°26' W 000°19'3 3.3
2014-Sep-12 04:33N 39°25' W 000°15'8 7.7
2014-Sep-12 03:33N 39°24' W 000°05'1515.1
2014-Sep-12 02:33N 39°23' E 000°14'1817.4
2014-Sep-12 01:33N 39°22' E 000°37'1717.4
2014-Sep-12 00:33N 39°21' E 000°59'1816.9
2014-Sep-11 23:29N 39°20' E 001°22'1617.1
2014-Sep-11 22:33N 39°19' E 001°43'1717.4
2014-Sep-11 21:33N 39°15' E 002°05'1817.9
2014-Sep-11 20:34N 39°09' E 002°26'1817.8
2014-Sep-11 19:34N 39°03' E 002°48'1817.7
2014-Sep-11 18:33N 38°59' E 003°10'1817.5
2014-Sep-11 17:33N 38°54' E 003°32'1817.5
2014-Sep-11 16:33N 38°50' E 003°54'2217.4
2014-Sep-11 15:18N 38°46' E 004°21'19317.5
2014-Sep-11 04:18N 38°04' E 008°22'1317.4
2014-Sep-11 03:32N 38°01' E 008°38'1817.2
2014-Sep-11 02:29N 37°58' E 009°01'1617.4
2014-Sep-11 01:32N 37°54' E 009°21'8617.4
2014-Sep-10 20:33N 37°30' E 011°06'5417.6
2014-Sep-10 17:28N 37°06' E 012°07'1617.3
2014-Sep-10 16:33N 37°01' E 012°26'1717.6
2014-Sep-10 15:33N 36°56' E 012°47'1817.6
2014-Sep-10 14:33N 36°52' E 013°08'1717.3
2014-Sep-10 13:33N 36°46' E 013°29'1817.8
2014-Sep-10 12:33N 36°41' E 013°50'1817.7
2014-Sep-10 11:33N 36°35' E 014°11'2217.5
2014-Sep-10 10:18N 36°30' E 014°37'1717.5
2014-Sep-10 09:20N 36°28' E 014°58'42415.2
2014-Sep-09 05:30N 37°37' E 023°42'1717.9
2014-Sep-09 04:33N 37°54' E 023°36'4 3.6
2014-Sep-09 03:32N 37°57' E 023°35'0 0.0
2014-Sep-09 02:32N 37°57' E 023°35'0 0.0
2014-Sep-09 01:32N 37°57' E 023°35'0 0.0
2014-Sep-09 00:32N 37°57' E 023°35'0 0.0
2014-Sep-08 23:32N 37°57' E 023°35'0 0.0
2014-Sep-08 22:32N 37°57' E 023°35'0 0.0
2014-Sep-08 21:32N 37°57' E 023°35'0 0.0
2014-Sep-08 20:31N 37°57' E 023°35'0 0.0
2014-Sep-08 19:31N 37°57' E 023°35'0 0.0
2014-Sep-08 18:31N 37°57' E 023°35'0 0.0
2014-Sep-08 17:31N 37°57' E 023°35'0 0.0
2014-Sep-08 16:31N 37°57' E 023°35'0 0.0
2014-Sep-08 15:31N 37°57' E 023°35'0 0.0
2014-Sep-08 14:31N 37°57' E 023°35'0 0.0
2014-Sep-08 13:28N 37°57' E 023°35'0 0.0
2014-Sep-08 12:31N 37°57' E 023°35'0 0.0
2014-Sep-08 11:28N 37°57' E 023°35'0 0.0
2014-Sep-08 10:16N 37°57' E 023°35'0 0.0
2014-Sep-08 09:28N 37°57' E 023°35'0 0.0
2014-Sep-08 08:31N 37°57' E 023°35'0 0.0
2014-Sep-08 07:31N 37°57' E 023°35'0 0.0
2014-Sep-08 06:22N 37°57' E 023°35'0 0.0
2014-Sep-08 05:31N 37°57' E 023°35'1 1.5
2014-Sep-08 04:33N 37°56' E 023°35'3 3.0
2014-Sep-08 03:33N 37°54' E 023°38'7 7.3
2014-Sep-08 02:33N 37°47' E 023°41'1010.1
2014-Sep-08 01:33N 37°38' E 023°46'2712.7
2014-Sep-07 23:28N 37°13' E 023°58'  
Track history (hours):
 
Tides and Currents Weather Stations Pressure Air Temp Water Temp Dewpoint Dewpoint Depression Visibility Wind Speed Wind Dir Waves Ship Positions

MSC Mara

Last reported at 2014-Sep-17 22:33 UTC. Time now 2014-Sep-20 12:04 UTC.
Position N 40°26' E 014°08'.

Length 294 m; draft 10.6 m.

Type: Ship (hazmat cat C). MMSI: 538002955.

Date/timePositionNaut miles runAvg speedWind from/ knotsBaromVisibWave heightAir tempDewpointWater temp
2014-Sep-17 22:33N 40°26' E 014°08'2320.2
2014-Sep-17 21:25N 40°48' E 014°17'2 0.7
2014-Sep-17 18:25N 40°50' E 014°17'0 0.0
2014-Sep-17 16:19N 40°50' E 014°17'0 0.0
2014-Sep-17 14:28N 40°50' E 014°17'0 0.0
2014-Sep-17 13:28N 40°50' E 014°17'22710.3
2014-Sep-16 15:25N 42°38' E 009°49'1820.9
2014-Sep-16 14:33N 42°55' E 009°41'2020.2
2014-Sep-16 13:33N 43°15' E 009°39'2120.9
2014-Sep-16 12:33N 43°36' E 009°44'2121.1
2014-Sep-16 11:33N 43°56' E 009°52'10 9.8
2014-Sep-16 10:31N 44°06' E 009°51'0 0.0
2014-Sep-16 09:31N 44°06' E 009°51'0 0.0
2014-Sep-16 08:31N 44°06' E 009°51'0 0.0
2014-Sep-16 07:31N 44°06' E 009°51'0 0.0
2014-Sep-16 06:31N 44°06' E 009°51'0 0.0
2014-Sep-16 05:31N 44°06' E 009°51'0 0.0
2014-Sep-16 04:31N 44°06' E 009°51'0 0.0
2014-Sep-16 03:31N 44°06' E 009°51'0 0.0
2014-Sep-16 02:31N 44°06' E 009°51'0 0.0
2014-Sep-16 01:31N 44°06' E 009°51'0 0.0
2014-Sep-16 00:31N 44°06' E 009°51'0 0.0
2014-Sep-15 23:31N 44°06' E 009°51'0 0.0
2014-Sep-15 22:31N 44°06' E 009°51'0 0.0
2014-Sep-15 21:31N 44°06' E 009°51'0 0.0
2014-Sep-15 20:31N 44°06' E 009°51'0 0.0
2014-Sep-15 19:31N 44°06' E 009°51'0 0.0
2014-Sep-15 18:31N 44°06' E 009°51'1 0.7
2014-Sep-15 17:33N 44°06' E 009°51'10 9.7
2014-Sep-15 16:33N 43°56' E 009°48'5 5.4
2014-Sep-15 15:33N 43°54' E 009°41'4 3.5
2014-Sep-15 14:33N 43°52' E 009°37'1313.1
2014-Sep-15 13:33N 43°46' E 009°21'1414.4
2014-Sep-15 12:34N 43°40' E 009°03'1414.4
2014-Sep-15 11:33N 43°34' E 008°45'6716.6
2014-Sep-15 07:30N 43°06' E 007°21'1414.9
2014-Sep-15 06:34N 43°02' E 007°03'1414.4
2014-Sep-15 05:33N 42°57' E 006°44'1414.0
2014-Sep-15 04:33N 42°53' E 006°26'1413.6
2014-Sep-15 03:33N 42°49' E 006°08'1414.0
2014-Sep-15 02:34N 42°49' E 005°49'1413.5
2014-Sep-15 01:33N 42°54' E 005°32'1514.1
2014-Sep-15 00:30N 43°03' E 005°16'1414.2
2014-Sep-14 23:33N 43°12' E 005°01'1212.3
2014-Sep-14 22:34N 43°23' E 004°56'4 4.4
2014-Sep-14 21:33N 43°25' E 004°50'0 0.0
2014-Sep-14 20:33N 43°25' E 004°50'0 0.0
2014-Sep-14 19:33N 43°25' E 004°50'0 0.0
2014-Sep-14 18:33N 43°25' E 004°50'0 0.0
2014-Sep-14 17:33N 43°25' E 004°50'0 0.0
2014-Sep-14 16:33N 43°25' E 004°50'0 0.0
2014-Sep-14 15:33N 43°25' E 004°50'0 0.0
2014-Sep-14 14:33N 43°25' E 004°50'0 0.0
2014-Sep-14 13:33N 43°25' E 004°50'0 0.0
2014-Sep-14 12:27N 43°25' E 004°50'0 0.0
2014-Sep-14 11:33N 43°25' E 004°50'0 0.0
2014-Sep-14 10:33N 43°25' E 004°50'0 0.0
2014-Sep-14 09:33N 43°25' E 004°50'0 0.0
2014-Sep-14 08:33N 43°25' E 004°50'0 0.0
2014-Sep-14 07:33N 43°25' E 004°50'0 0.0
2014-Sep-14 06:32N 43°25' E 004°50'0 0.0
2014-Sep-14 05:32N 43°25' E 004°50'0 0.0
2014-Sep-14 04:32N 43°25' E 004°50'0 0.0
2014-Sep-14 03:32N 43°25' E 004°50'0 0.0
2014-Sep-14 02:32N 43°25' E 004°50'1 1.3
2014-Sep-14 01:34N 43°24' E 004°52'4210.5
2014-Sep-13 21:33N 42°44' E 004°36'1413.6
2014-Sep-13 20:33N 42°32' E 004°26'1313.0
2014-Sep-13 19:33N 42°22' E 004°15'1413.9
2014-Sep-13 18:32N 42°10' E 004°04'1313.0
2014-Sep-13 17:33N 41°60' E 003°55'1313.4
2014-Sep-13 16:33N 41°50' E 003°43'1512.9
2014-Sep-13 15:25N 41°39' E 003°29'1213.7
2014-Sep-13 14:33N 41°31' E 003°17'1413.4
2014-Sep-13 13:32N 41°22' E 003°04'1817.4
2014-Sep-13 12:29N 41°09' E 002°46'2021.3
2014-Sep-13 11:33N 40°56' E 002°27'1717.4
2014-Sep-13 10:33N 40°44' E 002°11'1514.5
2014-Sep-13 09:33N 40°34' E 001°56'1515.1
2014-Sep-13 08:33N 40°24' E 001°42'1515.2
2014-Sep-13 07:33N 40°13' E 001°28'1515.0
2014-Sep-13 06:33N 40°03' E 001°13'1514.7
2014-Sep-13 05:33N 39°53' E 000°59'1414.4
2014-Sep-13 04:33N 39°45' E 000°43'1414.5
2014-Sep-13 03:34N 39°39' E 000°26'3414.8
2014-Sep-13 01:15N 39°25' W 000°14'4 6.2
2014-Sep-13 00:33N 39°26' W 000°20'0 0.0
2014-Sep-12 23:30N 39°26' W 000°20'0 0.0
2014-Sep-12 22:33N 39°26' W 000°20'0 0.0
2014-Sep-12 21:18N 39°26' W 000°20'0 0.0
2014-Sep-12 20:33N 39°26' W 000°20'0 0.0
2014-Sep-12 19:30N 39°26' W 000°20'0 0.0
2014-Sep-12 18:30N 39°26' W 000°20'0 0.0
2014-Sep-12 17:30N 39°26' W 000°20'0 0.0
2014-Sep-12 16:33N 39°26' W 000°20'0 0.0
2014-Sep-12 15:33N 39°26' W 000°20'0 0.0
2014-Sep-12 14:33N 39°26' W 000°20'0 0.0
2014-Sep-12 13:33N 39°26' W 000°20'0 0.0
2014-Sep-12 12:33N 39°26' W 000°20'0 0.0
2014-Sep-12 11:33N 39°26' W 000°20'0 0.0
2014-Sep-12 10:30N 39°26' W 000°20'0 0.0
2014-Sep-12 09:33N 39°26' W 000°20'0 0.0
2014-Sep-12 08:33N 39°26' W 000°20'0 0.0
2014-Sep-12 07:30N 39°26' W 000°20'0 0.0
2014-Sep-12 06:33N 39°26' W 000°20'0 0.1
2014-Sep-12 05:33N 39°26' W 000°19'3 3.3
2014-Sep-12 04:33N 39°25' W 000°15'8 7.7
2014-Sep-12 03:33N 39°24' W 000°05'1515.1
2014-Sep-12 02:33N 39°23' E 000°14'1817.4
2014-Sep-12 01:33N 39°22' E 000°37'1717.4
2014-Sep-12 00:33N 39°21' E 000°59'1816.9
2014-Sep-11 23:29N 39°20' E 001°22'1617.1
2014-Sep-11 22:33N 39°19' E 001°43'1717.4
2014-Sep-11 21:33N 39°15' E 002°05'1817.9
2014-Sep-11 20:34N 39°09' E 002°26'1817.8
2014-Sep-11 19:34N 39°03' E 002°48'1817.7
2014-Sep-11 18:33N 38°59' E 003°10'1817.5
2014-Sep-11 17:33N 38°54' E 003°32'1817.5
2014-Sep-11 16:33N 38°50' E 003°54'2217.4
2014-Sep-11 15:18N 38°46' E 004°21'19317.5
2014-Sep-11 04:18N 38°04' E 008°22'1317.4
2014-Sep-11 03:32N 38°01' E 008°38'1817.2
2014-Sep-11 02:29N 37°58' E 009°01'1617.4
2014-Sep-11 01:32N 37°54' E 009°21'8617.4
2014-Sep-10 20:33N 37°30' E 011°06'5417.6
2014-Sep-10 17:28N 37°06' E 012°07'1617.3
2014-Sep-10 16:33N 37°01' E 012°26'1717.6
2014-Sep-10 15:33N 36°56' E 012°47'1817.6
2014-Sep-10 14:33N 36°52' E 013°08'1717.3
2014-Sep-10 13:33N 36°46' E 013°29'1817.8
2014-Sep-10 12:33N 36°41' E 013°50'1817.7
2014-Sep-10 11:33N 36°35' E 014°11'2217.5
2014-Sep-10 10:18N 36°30' E 014°37'1717.5
2014-Sep-10 09:20N 36°28' E 014°58'42415.2
2014-Sep-09 05:30N 37°37' E 023°42'1717.9
2014-Sep-09 04:33N 37°54' E 023°36'4 3.6
2014-Sep-09 03:32N 37°57' E 023°35'0 0.0
2014-Sep-09 02:32N 37°57' E 023°35'0 0.0
2014-Sep-09 01:32N 37°57' E 023°35'0 0.0
2014-Sep-09 00:32N 37°57' E 023°35'0 0.0
2014-Sep-08 23:32N 37°57' E 023°35'0 0.0
2014-Sep-08 22:32N 37°57' E 023°35'0 0.0
2014-Sep-08 21:32N 37°57' E 023°35'0 0.0
2014-Sep-08 20:31N 37°57' E 023°35'0 0.0
2014-Sep-08 19:31N 37°57' E 023°35'0 0.0
2014-Sep-08 18:31N 37°57' E 023°35'0 0.0
2014-Sep-08 17:31N 37°57' E 023°35'0 0.0
2014-Sep-08 16:31N 37°57' E 023°35'0 0.0
2014-Sep-08 15:31N 37°57' E 023°35'0 0.0
2014-Sep-08 14:31N 37°57' E 023°35'0 0.0
2014-Sep-08 13:28N 37°57' E 023°35'0 0.0
2014-Sep-08 12:31N 37°57' E 023°35'0 0.0
2014-Sep-08 11:28N 37°57' E 023°35'0 0.0
2014-Sep-08 10:16N 37°57' E 023°35'0 0.0
2014-Sep-08 09:28N 37°57' E 023°35'0 0.0
2014-Sep-08 08:31N 37°57' E 023°35'0 0.0
2014-Sep-08 07:31N 37°57' E 023°35'0 0.0
2014-Sep-08 06:22N 37°57' E 023°35'0 0.0
2014-Sep-08 05:31N 37°57' E 023°35'1 1.5
2014-Sep-08 04:33N 37°56' E 023°35'3 3.0
2014-Sep-08 03:33N 37°54' E 023°38'7 7.3
2014-Sep-08 02:33N 37°47' E 023°41'1010.1
2014-Sep-08 01:33N 37°38' E 023°46'2712.7
2014-Sep-07 23:28N 37°13' E 023°58'  

Dump ship's entire track history